createdAt,value
2023-02-22T00:01:23.018Z,8.60
2023-02-22T00:03:51.662Z,8.30
2023-02-22T00:06:21.113Z,8.90
2023-02-22T00:08:49.746Z,9.43
2023-02-22T00:11:16.904Z,8.70
2023-02-22T00:13:45.032Z,8.15
2023-02-22T00:16:20.624Z,9.30
2023-02-22T00:18:48.103Z,9.65
2023-02-22T00:21:16.767Z,8.35
2023-02-22T00:23:46.656Z,10.77
2023-02-22T00:26:23.413Z,8.70
2023-02-22T00:28:54.209Z,9.75
2023-02-22T00:31:21.623Z,10.82
2023-02-22T00:33:48.364Z,9.73
2023-02-22T00:36:15.259Z,10.23
2023-02-22T00:38:42.166Z,9.50
2023-02-22T00:41:09.187Z,8.60
2023-02-22T00:43:36.092Z,9.20
2023-02-22T00:46:03.244Z,9.75
2023-02-22T00:48:29.914Z,10.02
2023-02-22T00:50:56.693Z,9.63
2023-02-22T00:53:25.037Z,10.55
2023-02-22T00:55:52.343Z,11.13
2023-02-22T00:58:19.121Z,9.57
2023-02-22T01:00:45.959Z,9.25
2023-02-22T01:03:15.008Z,9.13
2023-02-22T01:05:41.994Z,9.80
2023-02-22T01:08:11.108Z,9.38
2023-02-22T01:10:39.023Z,10.80
2023-02-22T01:13:09.050Z,9.10
2023-02-22T01:15:37.716Z,9.40
2023-02-22T01:18:05.191Z,9.55
2023-02-22T01:20:32.714Z,9.20
2023-02-22T01:23:03.529Z,9.05
2023-02-22T01:25:31.358Z,9.63
2023-02-22T01:27:59.810Z,10.18
2023-02-22T01:30:29.567Z,9.02
2023-02-22T01:32:56.535Z,10.10
2023-02-22T01:35:27.810Z,10.40
2023-02-22T01:37:55.170Z,9.85
2023-02-22T01:40:35.011Z,10.43
2023-02-22T01:43:15.508Z,9.65
2023-02-22T01:45:55.048Z,10.63
2023-02-22T01:48:27.905Z,10.05
2023-02-22T01:50:59.079Z,9.82
2023-02-22T01:53:34.859Z,9.35
2023-02-22T01:56:02.635Z,10.60
2023-02-22T01:58:32.368Z,9.68
2023-02-22T02:00:59.091Z,10.93
2023-02-22T02:03:30.701Z,10.07
2023-02-22T02:06:02.419Z,9.60
2023-02-22T02:08:36.132Z,8.90
2023-02-22T02:11:09.228Z,9.85
2023-02-22T02:13:36.585Z,8.75
2023-02-22T02:16:03.672Z,8.90
2023-02-22T02:18:32.503Z,9.90
2023-02-22T02:21:43.898Z,9.25
2023-02-22T02:24:33.009Z,9.77
2023-02-22T02:27:11.415Z,9.50
2023-02-22T02:29:46.953Z,9.32
2023-02-22T02:32:36.112Z,8.60
2023-02-22T02:35:21.676Z,9.10
2023-02-22T02:38:08.051Z,9.85
2023-02-22T02:41:03.271Z,8.52
2023-02-22T02:43:36.767Z,9.07
2023-02-22T02:46:18.315Z,8.75
2023-02-22T02:48:54.784Z,10.82
2023-02-22T02:51:23.591Z,8.65
2023-02-22T02:53:52.397Z,8.13
2023-02-22T02:56:19.624Z,9.20
2023-02-22T02:58:53.685Z,8.60
2023-02-22T03:01:42.604Z,9.88
2023-02-22T03:04:43.392Z,8.60
2023-02-22T03:07:31.079Z,8.52
2023-02-22T03:10:33.194Z,8.70
2023-02-22T03:13:36.244Z,8.10
2023-02-22T03:16:05.903Z,8.70
2023-02-22T03:19:13.004Z,8.35
2023-02-22T03:22:02.438Z,8.35
2023-02-22T03:24:42.417Z,8.50
2023-02-22T03:27:12.228Z,9.15
2023-02-22T03:29:45.061Z,8.77
2023-02-22T03:32:20.222Z,9.32
2023-02-22T03:34:53.032Z,8.70
2023-02-22T03:37:24.069Z,8.52
2023-02-22T03:39:54.248Z,9.23
2023-02-22T03:42:40.773Z,9.70
2023-02-22T03:45:10.437Z,10.00
2023-02-22T03:47:42.118Z,10.25
2023-02-22T03:50:21.991Z,11.10
2023-02-22T03:52:48.956Z,10.77
2023-02-22T03:55:17.670Z,12.40
2023-02-22T03:57:49.422Z,9.40
2023-02-22T04:00:20.171Z,10.85
2023-02-22T04:02:46.797Z,9.98
2023-02-22T04:05:14.207Z,10.60
2023-02-22T04:07:41.623Z,10.20
2023-02-22T04:10:09.915Z,10.73
2023-02-22T04:12:37.207Z,9.80
2023-02-22T04:15:06.996Z,9.98
2023-02-22T04:17:33.630Z,9.52
2023-02-22T04:20:00.372Z,9.95
2023-02-22T04:22:27.051Z,10.45
2023-02-22T04:24:53.720Z,9.05
2023-02-22T04:27:20.419Z,10.10
2023-02-22T04:29:47.029Z,11.05
2023-02-22T04:32:13.617Z,10.05
2023-02-22T04:34:40.238Z,9.45
2023-02-22T04:37:07.622Z,10.00
2023-02-22T04:39:34.323Z,9.77
2023-02-22T04:42:00.921Z,10.68
2023-02-22T04:44:27.556Z,10.88
2023-02-22T04:46:54.207Z,10.35
2023-02-22T04:49:20.857Z,8.98
2023-02-22T04:51:47.546Z,10.05
2023-02-22T04:54:14.263Z,10.70
2023-02-22T04:56:40.869Z,11.18
2023-02-22T04:59:07.497Z,10.95
2023-02-22T05:01:36.047Z,11.38
2023-02-22T05:04:07.585Z,11.00
2023-02-22T05:06:34.599Z,12.05
2023-02-22T05:09:01.250Z,13.45
2023-02-22T05:11:28.261Z,12.65
2023-02-22T05:13:54.941Z,12.95
2023-02-22T05:16:21.746Z,12.02
2023-02-22T05:18:48.414Z,11.85
2023-02-22T05:21:15.173Z,11.95
2023-02-22T05:23:42.000Z,11.80
2023-02-22T05:26:11.667Z,11.75
2023-02-22T05:28:39.093Z,11.10
2023-02-22T05:31:07.366Z,11.38
2023-02-22T05:33:34.223Z,12.60
2023-02-22T05:36:00.872Z,11.80
2023-02-22T05:38:27.629Z,11.82
2023-02-22T05:40:54.352Z,11.02
2023-02-22T05:43:20.998Z,11.80
2023-02-22T05:45:47.622Z,12.80
2023-02-22T05:48:14.239Z,11.57
2023-02-22T05:50:40.879Z,10.18
2023-02-22T05:53:07.553Z,11.13
2023-02-22T05:55:34.233Z,10.93
2023-02-22T05:58:01.706Z,11.90
2023-02-22T06:00:30.649Z,11.98
2023-02-22T06:02:58.203Z,11.90
2023-02-22T06:05:25.431Z,10.50
2023-02-22T06:07:52.261Z,11.18
2023-02-22T06:10:18.899Z,11.95
2023-02-22T06:12:46.212Z,15.43
2023-02-22T06:15:13.935Z,14.02
2023-02-22T06:17:41.808Z,15.57
2023-02-22T06:20:11.064Z,14.65
2023-02-22T06:22:37.857Z,14.60
2023-02-22T06:25:05.871Z,15.65
2023-02-22T06:27:33.150Z,13.82
2023-02-22T06:30:00.736Z,13.68
2023-02-22T06:32:28.322Z,15.25
2023-02-22T06:34:54.953Z,13.63
2023-02-22T06:37:21.615Z,15.05
2023-02-22T06:39:48.234Z,13.63
2023-02-22T06:42:14.906Z,13.18
2023-02-22T06:44:41.584Z,15.52
2023-02-22T06:47:08.214Z,14.50
2023-02-22T06:49:34.879Z,13.60
2023-02-22T06:52:01.785Z,14.80
2023-02-22T06:54:28.396Z,13.80
2023-02-22T06:56:55.049Z,15.55
2023-02-22T06:59:23.444Z,15.32
2023-02-22T07:01:50.059Z,13.32
2023-02-22T07:04:16.696Z,15.18
2023-02-22T07:06:50.223Z,15.65
2023-02-22T07:09:18.330Z,14.25
2023-02-22T07:11:45.012Z,15.73
2023-02-22T07:14:11.678Z,14.30
2023-02-22T07:16:38.348Z,15.10
2023-02-22T07:19:04.995Z,14.73
2023-02-22T07:21:31.627Z,14.60
2023-02-22T07:23:59.153Z,15.05
2023-02-22T07:26:26.691Z,14.90
2023-02-22T07:28:53.594Z,14.77
2023-02-22T07:31:20.230Z,14.13
2023-02-22T07:33:48.030Z,14.68
2023-02-22T07:36:17.770Z,14.20
2023-02-22T07:38:47.294Z,16.75
2023-02-22T07:41:14.021Z,15.60
2023-02-22T07:43:40.699Z,14.40
2023-02-22T07:46:07.572Z,14.93
2023-02-22T07:48:34.273Z,14.57
2023-02-22T07:51:00.935Z,13.82
2023-02-22T07:53:30.295Z,15.25
2023-02-22T07:55:58.381Z,14.73
2023-02-22T07:58:27.137Z,15.68
2023-02-22T08:00:54.269Z,15.70
2023-02-22T08:03:23.827Z,15.20
2023-02-22T08:05:54.345Z,15.95
2023-02-22T08:08:21.672Z,14.93
2023-02-22T08:10:49.150Z,14.63
2023-02-22T08:13:16.694Z,14.85
2023-02-22T08:15:44.238Z,15.02
2023-02-22T08:18:13.631Z,15.35
2023-02-22T08:20:42.510Z,15.55
2023-02-22T08:23:10.486Z,16.05
2023-02-22T08:25:37.550Z,15.68
2023-02-22T08:28:07.128Z,15.65
2023-02-22T08:30:35.069Z,17.15
2023-02-22T08:33:03.098Z,16.58
2023-02-22T08:35:32.297Z,15.85
2023-02-22T08:38:01.885Z,17.15
2023-02-22T08:40:33.632Z,18.60
2023-02-22T08:43:01.637Z,18.27
2023-02-22T08:45:28.733Z,18.08
2023-02-22T08:47:55.491Z,18.67
2023-02-22T08:50:33.689Z,17.08
2023-02-22T08:53:03.152Z,18.00
2023-02-22T08:55:33.490Z,17.58
2023-02-22T08:58:02.846Z,18.65
2023-02-22T09:00:32.950Z,20.10
2023-02-22T09:03:03.661Z,19.33
2023-02-22T09:05:31.617Z,19.02
2023-02-22T09:07:59.178Z,20.40
2023-02-22T09:10:28.361Z,19.88
2023-02-22T09:12:55.922Z,19.27
2023-02-22T09:15:24.403Z,20.52
2023-02-22T09:17:51.437Z,17.80
2023-02-22T09:20:19.927Z,17.83
2023-02-22T09:22:47.082Z,19.02
2023-02-22T09:25:16.953Z,17.63
2023-02-22T09:27:47.856Z,17.58
2023-02-22T09:30:33.201Z,17.45
2023-02-22T09:33:21.214Z,16.45
2023-02-22T09:35:49.883Z,18.40
2023-02-22T09:38:22.950Z,17.70
2023-02-22T09:40:54.217Z,17.48
2023-02-22T09:43:37.919Z,16.00
2023-02-22T09:46:13.774Z,18.05
2023-02-22T09:49:03.512Z,17.25
2023-02-22T09:51:45.242Z,17.38
2023-02-22T09:54:21.378Z,17.63
2023-02-22T09:56:50.064Z,15.68
2023-02-22T09:59:23.085Z,16.88
2023-02-22T10:01:58.224Z,18.30
2023-02-22T10:04:36.500Z,17.75
2023-02-22T10:07:26.005Z,15.52
2023-02-22T10:09:56.486Z,17.42
2023-02-22T10:12:30.023Z,16.85
2023-02-22T10:15:16.575Z,17.48
2023-02-22T10:18:00.570Z,17.15
2023-02-22T10:20:53.963Z,17.70
2023-02-22T10:23:53.493Z,18.33
2023-02-22T10:26:28.584Z,20.30
2023-02-22T10:29:24.280Z,18.60
2023-02-22T10:31:56.793Z,20.17
2023-02-22T10:34:26.510Z,18.27
2023-02-22T10:37:17.244Z,19.33
2023-02-22T10:39:45.631Z,18.30
2023-02-22T10:42:12.498Z,20.10
2023-02-22T10:44:40.535Z,18.00
2023-02-22T10:47:10.594Z,18.38
2023-02-22T10:49:43.695Z,17.98
2023-02-22T10:52:19.870Z,18.02
2023-02-22T10:54:50.097Z,17.45
2023-02-22T10:57:21.165Z,17.90
2023-02-22T10:59:47.819Z,16.15
2023-02-22T11:02:29.557Z,16.30
2023-02-22T11:05:00.404Z,15.60
2023-02-22T11:07:29.000Z,15.32
2023-02-22T11:10:01.173Z,14.93
2023-02-22T11:12:39.377Z,15.40
2023-02-22T11:15:22.161Z,15.95
2023-02-22T11:17:51.659Z,13.65
2023-02-22T11:20:27.005Z,14.75
2023-02-22T11:22:56.163Z,15.10
2023-02-22T11:25:27.594Z,15.02
2023-02-22T11:27:54.863Z,16.77
2023-02-22T11:30:30.355Z,14.30
2023-02-22T11:33:17.271Z,14.70
2023-02-22T11:35:56.871Z,15.93
2023-02-22T11:38:26.344Z,15.50
2023-02-22T11:41:16.601Z,17.13
2023-02-22T11:43:45.773Z,15.60
2023-02-22T11:46:42.220Z,17.23
2023-02-22T11:49:11.565Z,16.60
2023-02-22T11:51:57.043Z,15.73
2023-02-22T11:54:53.910Z,15.63
2023-02-22T11:57:22.098Z,16.60
2023-02-22T12:00:16.135Z,17.48
2023-02-22T12:02:59.912Z,16.60
2023-02-22T12:05:59.334Z,17.27
2023-02-22T12:08:38.817Z,15.30
2023-02-22T12:11:31.463Z,16.38
2023-02-22T12:14:34.068Z,16.80
2023-02-22T12:17:20.396Z,16.75
2023-02-22T12:20:21.919Z,17.15
2023-02-22T12:23:12.749Z,16.45
2023-02-22T12:25:46.970Z,16.50
2023-02-22T12:28:24.559Z,15.43
2023-02-22T12:31:22.954Z,15.13
2023-02-22T12:34:11.761Z,15.23
2023-02-22T12:36:51.788Z,15.33
2023-02-22T12:39:53.176Z,16.60
2023-02-22T12:42:53.529Z,14.97
2023-02-22T12:45:32.088Z,14.90
2023-02-22T12:48:29.275Z,14.23
2023-02-22T12:51:03.975Z,15.97
2023-02-22T12:53:37.042Z,15.57
2023-02-22T12:56:20.145Z,15.32
2023-02-22T12:58:55.308Z,13.50
2023-02-22T13:01:25.832Z,14.75
2023-02-22T13:03:54.084Z,14.57
2023-02-22T13:06:26.618Z,14.87
2023-02-22T13:09:07.095Z,14.23
2023-02-22T13:11:54.478Z,16.17
2023-02-22T13:14:43.360Z,15.43
2023-02-22T13:17:20.977Z,14.97
2023-02-22T13:20:12.832Z,15.50
2023-02-22T13:23:00.242Z,14.60
2023-02-22T13:25:41.150Z,15.80
2023-02-22T13:28:35.726Z,14.90
2023-02-22T13:31:26.894Z,14.00
2023-02-22T13:34:04.325Z,14.30
2023-02-22T13:36:38.503Z,14.67
2023-02-22T13:39:29.008Z,13.37
2023-02-22T13:42:19.012Z,14.47
2023-02-22T13:44:51.537Z,15.40
2023-02-22T13:47:38.814Z,15.70
2023-02-22T13:50:43.058Z,14.40
2023-02-22T13:53:20.057Z,14.20
2023-02-22T13:55:53.020Z,16.30
2023-02-22T13:58:20.883Z,15.30
2023-02-22T14:00:50.306Z,15.05
2023-02-22T14:03:35.960Z,16.00
2023-02-22T14:06:04.729Z,16.52
2023-02-22T14:08:31.583Z,15.05
2023-02-22T14:11:06.517Z,16.17
2023-02-22T14:13:58.001Z,15.90
2023-02-22T14:16:27.054Z,16.38
2023-02-22T14:19:14.321Z,16.55
2023-02-22T14:22:06.668Z,15.88
2023-02-22T14:24:47.670Z,16.92
2023-02-22T14:27:15.498Z,16.08
2023-02-22T14:29:57.083Z,15.85
2023-02-22T14:32:35.074Z,16.73
2023-02-22T14:35:26.511Z,17.00
2023-02-22T14:37:58.951Z,17.00
2023-02-22T14:40:31.240Z,16.55
2023-02-22T14:43:03.894Z,16.50
2023-02-22T14:45:34.511Z,17.40
2023-02-22T14:48:16.247Z,17.15
2023-02-22T14:50:50.773Z,17.13
2023-02-22T14:53:43.965Z,15.68
2023-02-22T14:56:28.534Z,17.15
2023-02-22T14:59:19.096Z,18.75
2023-02-22T15:02:01.739Z,18.33
2023-02-22T15:04:32.615Z,17.35
2023-02-22T15:07:01.108Z,17.05
2023-02-22T15:09:34.378Z,18.13
2023-02-22T15:12:04.337Z,17.95
2023-02-22T15:14:38.816Z,16.92
2023-02-22T15:17:19.760Z,16.73
2023-02-22T15:19:50.423Z,17.08
2023-02-22T15:22:27.002Z,17.30
2023-02-22T15:25:06.433Z,18.95
2023-02-22T15:27:37.028Z,15.43
2023-02-22T15:30:28.798Z,19.20
2023-02-22T15:33:04.245Z,17.42
2023-02-22T15:35:33.407Z,17.55
2023-02-22T15:38:12.418Z,18.35
2023-02-22T15:40:43.065Z,17.15
2023-02-22T15:43:19.757Z,17.80
2023-02-22T15:45:46.577Z,17.38
2023-02-22T15:48:15.753Z,17.65
2023-02-22T15:51:10.444Z,18.70
2023-02-22T15:53:49.360Z,17.83
2023-02-22T15:56:19.100Z,17.83
2023-02-22T15:58:47.584Z,18.50
2023-02-22T16:01:18.949Z,17.33
2023-02-22T16:03:58.278Z,19.77
2023-02-22T16:06:35.154Z,17.55
2023-02-22T16:09:11.816Z,17.05
2023-02-22T16:11:43.384Z,19.70
2023-02-22T16:14:35.013Z,19.20
2023-02-22T16:17:41.136Z,18.20
2023-02-22T16:20:13.088Z,18.75
2023-02-22T16:22:40.979Z,18.98
2023-02-22T16:25:21.335Z,19.60
2023-02-22T16:27:53.376Z,18.60
2023-02-22T16:30:28.727Z,17.88
2023-02-22T16:32:56.985Z,17.42
2023-02-22T16:35:28.634Z,18.77
2023-02-22T16:38:01.472Z,17.83
2023-02-22T16:40:34.338Z,18.52
2023-02-22T16:43:11.637Z,18.25
2023-02-22T16:45:39.298Z,18.13
2023-02-22T16:48:18.246Z,18.58
2023-02-22T16:50:44.975Z,17.92
2023-02-22T16:53:12.094Z,18.75
2023-02-22T16:55:41.644Z,17.95
2023-02-22T16:58:13.985Z,19.33
2023-02-22T17:00:42.227Z,17.63
2023-02-22T17:03:15.282Z,19.90
2023-02-22T17:05:42.595Z,18.00
2023-02-22T17:08:09.279Z,17.65
2023-02-22T17:10:37.160Z,20.50
2023-02-22T17:13:21.272Z,18.38
2023-02-22T17:15:49.003Z,18.13
2023-02-22T17:18:22.358Z,16.95
2023-02-22T17:20:53.073Z,18.75
2023-02-22T17:23:20.491Z,19.90
2023-02-22T17:26:02.147Z,17.70
2023-02-22T17:28:29.402Z,19.35
2023-02-22T17:31:01.364Z,17.88
2023-02-22T17:33:32.736Z,17.33
2023-02-22T17:36:01.837Z,17.35
2023-02-22T17:38:30.640Z,18.63
2023-02-22T17:40:59.216Z,18.38
2023-02-22T17:43:27.963Z,19.95
2023-02-22T17:45:55.289Z,18.73
2023-02-22T17:48:24.237Z,18.85
2023-02-22T17:50:51.503Z,19.05
2023-02-22T17:53:21.664Z,19.17
2023-02-22T17:55:48.791Z,17.50
2023-02-22T17:58:15.938Z,18.08
2023-02-22T18:00:47.993Z,17.58
2023-02-22T18:03:25.296Z,16.95
2023-02-22T18:05:56.338Z,18.00
2023-02-22T18:08:24.449Z,17.50
2023-02-22T18:10:56.218Z,17.58
2023-02-22T18:13:24.632Z,15.93
2023-02-22T18:15:51.567Z,17.35
2023-02-22T18:18:18.789Z,18.25
2023-02-22T18:20:47.160Z,17.83
2023-02-22T18:23:16.531Z,19.55
2023-02-22T18:26:03.754Z,18.13
2023-02-22T18:28:36.408Z,18.88
2023-02-22T18:31:14.405Z,17.15
2023-02-22T18:33:43.183Z,18.75
2023-02-22T18:36:13.456Z,19.70
2023-02-22T18:38:42.879Z,20.42
2023-02-22T18:41:15.189Z,19.75
2023-02-22T18:43:42.489Z,21.88
2023-02-22T18:46:14.932Z,20.80
2023-02-22T18:48:41.904Z,18.92
2023-02-22T18:51:11.498Z,18.42
2023-02-22T18:53:40.926Z,18.45
2023-02-22T18:56:10.635Z,19.38
2023-02-22T18:58:38.701Z,19.08
2023-02-22T19:01:06.930Z,18.63
2023-02-22T19:03:37.961Z,18.00
2023-02-22T19:06:10.083Z,19.20
2023-02-22T19:08:39.500Z,17.70
2023-02-22T19:11:08.650Z,19.90
2023-02-22T19:13:35.645Z,20.00
2023-02-22T19:16:07.209Z,17.70
2023-02-22T19:18:34.086Z,18.33
2023-02-22T19:21:02.580Z,19.40
2023-02-22T19:23:34.196Z,19.45
2023-02-22T19:26:02.446Z,18.60
2023-02-22T19:28:34.060Z,17.92
2023-02-22T19:31:31.549Z,19.08
2023-02-22T19:34:08.680Z,17.88
2023-02-22T19:36:41.141Z,17.05
2023-02-22T19:39:08.396Z,18.75
2023-02-22T19:41:35.026Z,17.83
2023-02-22T19:44:01.860Z,16.45
2023-02-22T19:46:28.768Z,17.42
2023-02-22T19:48:55.897Z,15.82
2023-02-22T19:51:25.462Z,16.25
2023-02-22T19:53:53.128Z,16.92
2023-02-22T19:56:26.960Z,19.48
2023-02-22T19:58:55.510Z,18.10
2023-02-22T20:01:24.538Z,18.77
2023-02-22T20:03:54.321Z,19.83
2023-02-22T20:06:23.083Z,18.20
2023-02-22T20:08:51.002Z,18.38
2023-02-22T20:11:18.037Z,19.15
2023-02-22T20:13:44.977Z,16.77
2023-02-22T20:16:15.547Z,17.45
2023-02-22T20:18:46.364Z,17.52
2023-02-22T20:21:25.875Z,17.38
2023-02-22T20:23:56.933Z,17.85
2023-02-22T20:26:24.673Z,20.17
2023-02-22T20:28:52.266Z,19.58
2023-02-22T20:31:20.867Z,18.00
2023-02-22T20:33:52.023Z,17.83
2023-02-22T20:36:19.447Z,19.55
2023-02-22T20:38:46.904Z,16.48
2023-02-22T20:41:16.176Z,16.08
2023-02-22T20:43:43.011Z,20.50
2023-02-22T20:46:09.682Z,19.38
2023-02-22T20:48:36.329Z,19.25
2023-02-22T20:51:14.127Z,17.83
2023-02-22T20:53:43.424Z,18.33
2023-02-22T20:56:18.521Z,19.40
2023-02-22T20:58:46.128Z,18.23
2023-02-22T21:01:16.944Z,17.60
2023-02-22T21:03:43.978Z,20.35
2023-02-22T21:06:15.277Z,18.80
2023-02-22T21:08:44.008Z,20.45
2023-02-22T21:11:15.599Z,19.15
2023-02-22T21:13:42.354Z,18.33
2023-02-22T21:16:15.298Z,16.95
2023-02-22T21:18:41.915Z,17.90
2023-02-22T21:21:10.364Z,17.35
2023-02-22T21:23:38.264Z,19.50
2023-02-22T21:26:05.422Z,19.90
2023-02-22T21:28:50.585Z,17.58
2023-02-22T21:31:23.476Z,18.42
2023-02-22T21:33:52.903Z,17.05
2023-02-22T21:36:20.684Z,17.13
2023-02-22T21:38:53.103Z,18.50
2023-02-22T21:41:21.384Z,17.25
2023-02-22T21:43:51.699Z,18.25
2023-02-22T21:46:18.798Z,18.33
2023-02-22T21:48:48.938Z,18.92
2023-02-22T21:51:25.334Z,17.80
2023-02-22T21:53:54.321Z,18.83
2023-02-22T21:56:24.458Z,18.48
2023-02-22T21:58:59.104Z,18.33
2023-02-22T22:01:31.457Z,16.92
2023-02-22T22:03:59.981Z,16.52
2023-02-22T22:06:28.891Z,19.13
2023-02-22T22:08:56.295Z,17.52
2023-02-22T22:11:25.014Z,16.75
2023-02-22T22:13:53.640Z,16.23
2023-02-22T22:16:22.172Z,18.45
2023-02-22T22:18:48.944Z,17.63
2023-02-22T22:21:25.409Z,16.20
2023-02-22T22:23:57.325Z,17.45
2023-02-22T22:26:25.453Z,17.67
2023-02-22T22:28:54.671Z,18.65
2023-02-22T22:31:23.948Z,18.48
2023-02-22T22:33:51.430Z,21.02
2023-02-22T22:36:21.161Z,17.90
2023-02-22T22:38:48.612Z,21.73
2023-02-22T22:41:19.070Z,17.88
2023-02-22T22:43:47.068Z,18.52
2023-02-22T22:46:16.271Z,16.67
2023-02-22T22:48:46.656Z,18.83
2023-02-22T22:51:16.689Z,18.30
2023-02-22T22:53:45.246Z,17.63
2023-02-22T22:56:14.708Z,17.80
2023-02-22T22:58:52.911Z,18.90
2023-02-22T23:01:26.770Z,19.60
2023-02-22T23:03:59.810Z,20.40
2023-02-22T23:06:34.312Z,22.13
2023-02-22T23:09:11.092Z,21.65
2023-02-22T23:11:44.338Z,21.27
2023-02-22T23:14:14.017Z,19.58
2023-02-22T23:16:42.423Z,18.23
2023-02-22T23:19:09.458Z,20.13
2023-02-22T23:21:37.093Z,19.13
2023-02-22T23:24:07.373Z,17.90
2023-02-22T23:26:34.574Z,20.75
2023-02-22T23:29:02.029Z,19.80
2023-02-22T23:31:29.006Z,18.33
2023-02-22T23:33:58.701Z,19.33
2023-02-22T23:36:26.389Z,18.98
2023-02-22T23:38:54.156Z,19.90
2023-02-22T23:41:21.143Z,19.58
2023-02-22T23:43:47.849Z,20.55
2023-02-22T23:46:19.888Z,21.25
2023-02-22T23:48:54.528Z,19.67
2023-02-22T23:51:26.449Z,20.67
2023-02-22T23:53:57.334Z,18.50
2023-02-22T23:56:26.676Z,19.02
2023-02-22T23:58:57.059Z,18.80
